createdAt,value
2017-10-10T00:01:09.351Z,95.00
2017-10-10T00:03:38.004Z,95.00
2017-10-10T00:06:06.628Z,95.10
2017-10-10T00:08:34.932Z,94.90
2017-10-10T00:11:03.446Z,94.80
2017-10-10T00:13:32.432Z,94.70
2017-10-10T00:16:01.476Z,94.70
2017-10-10T00:18:29.811Z,94.60
2017-10-10T00:20:58.441Z,94.60
2017-10-10T00:23:26.851Z,94.50
2017-10-10T00:25:55.135Z,94.60
2017-10-10T00:28:24.499Z,94.40
2017-10-10T00:30:52.804Z,94.30
2017-10-10T00:33:21.554Z,94.10
2017-10-10T00:35:50.319Z,94.00
2017-10-10T00:38:18.951Z,93.90
2017-10-10T00:40:47.843Z,93.90
2017-10-10T00:43:16.787Z,93.90
2017-10-10T00:45:45.507Z,94.00
2017-10-10T00:48:14.578Z,94.10
2017-10-10T00:50:42.932Z,94.10
2017-10-10T00:53:11.439Z,94.10
2017-10-10T00:55:40.451Z,94.10
2017-10-10T00:58:08.940Z,94.10
2017-10-10T01:00:37.939Z,94.10
2017-10-10T01:03:08.653Z,94.10
2017-10-10T01:05:37.191Z,94.00
2017-10-10T01:08:06.107Z,94.10
2017-10-10T01:10:34.891Z,94.10
2017-10-10T01:13:03.464Z,94.10
2017-10-10T01:15:32.255Z,93.90
2017-10-10T01:18:01.468Z,93.90
2017-10-10T01:20:30.147Z,94.00
2017-10-10T01:22:58.641Z,94.10
2017-10-10T01:25:27.127Z,94.10
2017-10-10T01:27:55.971Z,94.20
2017-10-10T01:30:24.704Z,94.30
2017-10-10T01:32:53.154Z,94.30
2017-10-10T01:35:22.274Z,94.30
2017-10-10T01:37:50.659Z,94.30
2017-10-10T01:40:19.492Z,94.20
2017-10-10T01:42:47.944Z,94.30
2017-10-10T01:45:17.942Z,94.00
2017-10-10T01:47:47.088Z,94.40
2017-10-10T01:50:15.830Z,94.50
2017-10-10T01:52:44.151Z,94.50
2017-10-10T01:55:12.991Z,94.60
2017-10-10T01:57:41.733Z,95.40
2017-10-10T02:00:11.097Z,95.10
2017-10-10T02:02:39.836Z,94.50
2017-10-10T02:05:08.445Z,94.60
2017-10-10T02:07:36.856Z,94.70
2017-10-10T02:10:05.670Z,94.80
2017-10-10T02:12:34.200Z,94.90
2017-10-10T02:15:02.528Z,94.90
2017-10-10T02:17:31.500Z,94.90
2017-10-10T02:20:00.665Z,94.80
2017-10-10T02:22:29.325Z,94.80
2017-10-10T02:24:57.658Z,94.60
2017-10-10T02:27:26.314Z,94.60
2017-10-10T02:29:54.996Z,94.60
2017-10-10T02:32:24.199Z,94.60
2017-10-10T02:34:52.515Z,94.70
2017-10-10T02:37:21.033Z,95.00
2017-10-10T02:39:49.506Z,95.30
2017-10-10T02:42:18.019Z,95.50
2017-10-10T02:44:46.653Z,95.60
2017-10-10T02:47:15.499Z,95.80
2017-10-10T02:49:44.704Z,95.80
2017-10-10T02:52:13.591Z,96.00
2017-10-10T02:54:42.516Z,96.10
2017-10-10T02:57:11.171Z,96.10
2017-10-10T02:59:39.783Z,96.30
2017-10-10T03:02:08.112Z,96.50
2017-10-10T03:04:36.544Z,96.50
2017-10-10T03:07:05.791Z,96.50
2017-10-10T03:09:34.443Z,96.40
2017-10-10T03:12:03.058Z,96.40
2017-10-10T03:14:32.435Z,96.50
2017-10-10T03:17:01.299Z,96.50
2017-10-10T03:19:30.599Z,97.00
2017-10-10T03:21:59.185Z,96.40
2017-10-10T03:24:28.411Z,96.50
2017-10-10T03:26:57.267Z,96.50
2017-10-10T03:29:26.105Z,96.40
2017-10-10T03:31:55.004Z,96.40
2017-10-10T03:34:23.463Z,96.40
2017-10-10T03:36:52.159Z,96.30
2017-10-10T03:39:21.503Z,96.50
2017-10-10T03:41:50.471Z,96.50
2017-10-10T03:44:18.991Z,96.50
2017-10-10T03:46:47.991Z,96.50
2017-10-10T03:49:16.772Z,96.60
2017-10-10T03:51:45.203Z,96.60
2017-10-10T03:54:14.632Z,96.60
2017-10-10T03:56:43.100Z,96.60
2017-10-10T03:59:11.872Z,96.60
2017-10-10T04:01:41.155Z,96.70
2017-10-10T04:04:10.320Z,96.60
2017-10-10T04:06:38.880Z,96.70
2017-10-10T04:09:07.348Z,96.70
2017-10-10T04:11:36.019Z,96.50
2017-10-10T04:14:04.643Z,96.30
2017-10-10T04:16:32.967Z,96.30
2017-10-10T04:19:01.695Z,96.30
2017-10-10T04:21:30.313Z,96.20
2017-10-10T04:23:58.678Z,96.10
2017-10-10T04:26:27.263Z,96.00
2017-10-10T04:28:56.066Z,96.00
2017-10-10T04:31:24.868Z,95.90
2017-10-10T04:33:53.499Z,95.80
2017-10-10T04:36:22.325Z,95.80
2017-10-10T04:38:50.895Z,95.80
2017-10-10T04:41:19.449Z,95.80
2017-10-10T04:43:48.163Z,95.80
2017-10-10T04:46:17.076Z,95.90
2017-10-10T04:48:45.517Z,96.10
2017-10-10T04:51:14.037Z,96.10
2017-10-10T04:53:42.559Z,96.10
2017-10-10T04:56:11.768Z,96.10
2017-10-10T04:58:40.251Z,96.00
2017-10-10T05:01:08.835Z,96.30
2017-10-10T05:03:38.082Z,96.20
2017-10-10T05:06:06.535Z,96.20
2017-10-10T05:08:35.375Z,96.20
2017-10-10T05:11:04.144Z,96.30
2017-10-10T05:13:32.759Z,96.30
2017-10-10T05:16:01.072Z,96.40
2017-10-10T05:18:29.752Z,96.40
2017-10-10T05:20:58.435Z,96.60
2017-10-10T05:23:26.945Z,96.70
2017-10-10T05:25:55.818Z,96.50
2017-10-10T05:28:24.334Z,96.70
2017-10-10T05:30:52.902Z,96.80
2017-10-10T05:33:21.918Z,96.80
2017-10-10T05:35:51.018Z,96.80
2017-10-10T05:38:19.375Z,96.90
2017-10-10T05:40:47.955Z,96.90
2017-10-10T05:43:16.335Z,96.80
2017-10-10T05:45:45.535Z,96.60
2017-10-10T05:48:14.139Z,96.40
2017-10-10T05:50:42.764Z,96.30
2017-10-10T05:53:11.943Z,96.30
2017-10-10T05:55:40.443Z,96.10
2017-10-10T05:58:09.799Z,97.00
2017-10-10T06:00:38.864Z,96.10
2017-10-10T06:03:07.815Z,95.90
2017-10-10T06:05:36.471Z,95.90
2017-10-10T06:08:05.323Z,95.90
2017-10-10T06:10:33.841Z,95.80
2017-10-10T06:13:02.660Z,95.70
2017-10-10T06:15:30.948Z,95.50
2017-10-10T06:18:00.047Z,95.40
2017-10-10T06:20:30.868Z,95.30
2017-10-10T06:22:59.423Z,95.30
2017-10-10T06:25:28.587Z,95.20
2017-10-10T06:27:57.503Z,95.30
2017-10-10T06:30:25.982Z,95.30
2017-10-10T06:32:54.779Z,95.20
2017-10-10T06:35:23.315Z,95.10
2017-10-10T06:37:52.041Z,95.10
2017-10-10T06:40:20.571Z,95.30
2017-10-10T06:42:50.583Z,95.40
2017-10-10T06:45:19.488Z,95.30
2017-10-10T06:47:51.706Z,95.50
2017-10-10T06:50:20.847Z,95.60
2017-10-10T06:52:50.319Z,96.00
2017-10-10T06:55:18.651Z,95.90
2017-10-10T06:57:47.311Z,96.00
2017-10-10T07:00:16.569Z,96.00
2017-10-10T07:02:45.420Z,96.10
2017-10-10T07:05:14.425Z,96.10
2017-10-10T07:07:42.890Z,96.10
2017-10-10T07:10:11.839Z,96.20
2017-10-10T07:12:40.484Z,96.30
2017-10-10T07:15:10.641Z,96.40
2017-10-10T07:17:39.402Z,96.40
2017-10-10T07:20:07.775Z,96.40
2017-10-10T07:22:38.074Z,96.50
2017-10-10T07:25:07.103Z,96.60
2017-10-10T07:27:36.165Z,96.80
2017-10-10T07:30:07.731Z,96.80
2017-10-10T07:32:37.688Z,96.80
2017-10-10T07:35:06.607Z,96.80
2017-10-10T07:37:36.521Z,96.60
2017-10-10T07:40:05.714Z,96.30
2017-10-10T07:42:35.613Z,96.00
2017-10-10T07:45:06.142Z,96.00
2017-10-10T07:47:36.408Z,95.60
2017-10-10T07:50:05.966Z,95.70
2017-10-10T07:52:34.429Z,95.40
2017-10-10T07:55:03.294Z,95.10
2017-10-10T07:57:31.823Z,94.90
2017-10-10T08:00:00.723Z,94.80
2017-10-10T08:02:29.323Z,94.40
2017-10-10T08:04:58.065Z,94.10
2017-10-10T08:07:27.703Z,93.60
2017-10-10T08:09:56.735Z,93.20
2017-10-10T08:12:25.537Z,93.00
2017-10-10T08:14:54.978Z,92.80
2017-10-10T08:17:23.319Z,92.70
2017-10-10T08:19:52.383Z,92.70
2017-10-10T08:22:21.698Z,92.70
2017-10-10T08:24:50.259Z,92.70
2017-10-10T08:27:18.923Z,92.60
2017-10-10T08:29:47.798Z,92.90
2017-10-10T08:32:17.160Z,93.30
2017-10-10T08:34:47.200Z,93.90
2017-10-10T08:37:15.766Z,93.90
2017-10-10T08:39:44.812Z,94.00
2017-10-10T08:42:13.250Z,94.20
2017-10-10T08:44:43.411Z,94.40
2017-10-10T08:47:13.223Z,94.40
2017-10-10T08:49:42.362Z,94.50
2017-10-10T08:52:11.920Z,94.70
2017-10-10T08:54:40.952Z,94.60
2017-10-10T08:57:09.780Z,94.70
2017-10-10T08:59:38.703Z,94.80
2017-10-10T09:02:07.753Z,94.70
2017-10-10T09:04:36.415Z,94.60
2017-10-10T09:07:05.352Z,94.50
2017-10-10T09:09:34.035Z,95.50
2017-10-10T09:12:02.523Z,94.50
2017-10-10T09:14:31.251Z,94.40
2017-10-10T09:17:01.427Z,94.10
2017-10-10T09:19:30.218Z,94.10
2017-10-10T09:21:58.827Z,93.80
2017-10-10T09:24:27.519Z,93.60
2017-10-10T09:26:56.166Z,93.60
2017-10-10T09:29:25.623Z,93.40
2017-10-10T09:31:54.171Z,93.30
2017-10-10T09:34:23.190Z,93.50
2017-10-10T09:36:51.623Z,93.50
2017-10-10T09:39:20.619Z,93.40
2017-10-10T09:41:49.591Z,93.40
2017-10-10T09:44:19.049Z,93.20
2017-10-10T09:46:48.006Z,93.10
2017-10-10T09:49:16.588Z,93.00
2017-10-10T09:51:45.095Z,93.00
2017-10-10T09:54:13.691Z,92.90
2017-10-10T09:56:42.603Z,92.70
2017-10-10T09:59:11.451Z,92.90
2017-10-10T10:01:39.936Z,92.80
2017-10-10T10:04:08.468Z,92.80
2017-10-10T10:06:37.225Z,92.80
2017-10-10T10:09:05.698Z,92.70
2017-10-10T10:11:34.633Z,92.60
2017-10-10T10:14:04.626Z,92.50
2017-10-10T10:16:33.282Z,92.50
2017-10-10T10:19:02.071Z,92.50
2017-10-10T10:21:31.653Z,92.30
2017-10-10T10:24:00.248Z,92.10
2017-10-10T10:26:29.045Z,91.30
2017-10-10T10:28:57.683Z,90.80
2017-10-10T10:31:26.749Z,90.40
2017-10-10T10:33:56.148Z,90.20
2017-10-10T10:36:25.612Z,90.70
2017-10-10T10:38:53.992Z,90.50
2017-10-10T10:41:22.367Z,90.10
2017-10-10T10:43:51.750Z,89.00
2017-10-10T10:46:20.864Z,89.00
2017-10-10T10:48:49.255Z,88.30
2017-10-10T10:51:18.012Z,87.40
2017-10-10T10:53:47.292Z,86.40
2017-10-10T10:56:16.815Z,85.80
2017-10-10T10:58:45.371Z,85.50
2017-10-10T11:01:14.325Z,84.90
2017-10-10T11:03:43.031Z,84.40
2017-10-10T11:06:11.569Z,84.10
2017-10-10T11:08:40.295Z,84.10
2017-10-10T11:11:09.012Z,84.20
2017-10-10T11:13:37.752Z,84.50
2017-10-10T11:16:06.859Z,84.60
2017-10-10T11:18:35.684Z,84.80
2017-10-10T11:21:04.992Z,84.70
2017-10-10T11:23:33.849Z,84.70
2017-10-10T11:26:02.708Z,84.70
2017-10-10T11:28:32.531Z,84.10
2017-10-10T11:31:01.877Z,84.00
2017-10-10T11:33:30.360Z,83.70
2017-10-10T11:35:58.868Z,83.60
2017-10-10T11:38:27.899Z,83.20
2017-10-10T11:40:56.241Z,82.90
2017-10-10T11:43:24.655Z,82.50
2017-10-10T11:45:53.424Z,81.90
2017-10-10T11:48:22.883Z,80.60
2017-10-10T11:50:52.856Z,80.60
2017-10-10T11:53:21.164Z,80.20
2017-10-10T11:55:49.785Z,80.30
2017-10-10T11:58:19.223Z,80.50
2017-10-10T12:00:47.530Z,80.40
2017-10-10T12:03:15.811Z,80.40
2017-10-10T12:05:44.152Z,80.10
2017-10-10T12:08:13.863Z,79.60
2017-10-10T12:10:42.527Z,79.20
2017-10-10T12:13:11.752Z,78.80
2017-10-10T12:15:40.492Z,78.70
2017-10-10T12:18:09.454Z,78.50
2017-10-10T12:20:41.009Z,77.80
2017-10-10T12:23:11.447Z,77.70
2017-10-10T12:25:40.338Z,77.60
2017-10-10T12:28:08.740Z,77.20
2017-10-10T12:30:37.080Z,76.80
2017-10-10T12:33:05.543Z,76.80
2017-10-10T12:35:33.925Z,77.00
2017-10-10T12:38:02.284Z,76.70
2017-10-10T12:40:31.596Z,75.90
2017-10-10T12:43:02.683Z,75.90
2017-10-10T12:45:31.441Z,75.80
2017-10-10T12:48:00.056Z,75.90
2017-10-10T12:50:28.507Z,75.70
2017-10-10T12:52:56.895Z,75.90
2017-10-10T12:55:26.395Z,75.70
2017-10-10T12:57:55.975Z,75.50
2017-10-10T13:00:24.515Z,75.30
2017-10-10T13:02:53.352Z,75.40
2017-10-10T13:05:22.676Z,75.10
2017-10-10T13:07:51.002Z,75.00
2017-10-10T13:10:19.279Z,75.10
2017-10-10T13:12:48.219Z,75.10
2017-10-10T13:15:16.780Z,75.10
2017-10-10T13:17:45.103Z,75.50
2017-10-10T13:20:14.000Z,75.60
2017-10-10T13:22:42.702Z,75.30
2017-10-10T13:25:11.667Z,75.70
2017-10-10T13:27:40.287Z,75.00
2017-10-10T13:30:09.339Z,75.00
2017-10-10T13:32:37.888Z,74.80
2017-10-10T13:35:07.351Z,75.80
2017-10-10T13:37:35.972Z,75.80
2017-10-10T13:40:04.884Z,76.70
2017-10-10T13:42:33.223Z,77.20
2017-10-10T13:45:01.546Z,78.00
2017-10-10T13:47:30.529Z,78.80
2017-10-10T13:49:58.865Z,79.70
2017-10-10T13:52:27.420Z,80.80
2017-10-10T13:54:56.205Z,81.80
2017-10-10T13:57:24.704Z,82.00
2017-10-10T13:59:53.267Z,82.00
2017-10-10T14:02:21.997Z,82.20
2017-10-10T14:04:50.687Z,82.40
2017-10-10T14:07:19.099Z,82.50
2017-10-10T14:09:47.729Z,82.70
2017-10-10T14:12:16.780Z,83.30
2017-10-10T14:14:45.688Z,83.30
2017-10-10T14:17:14.394Z,83.50
2017-10-10T14:19:43.251Z,84.00
2017-10-10T14:22:12.180Z,84.30
2017-10-10T14:24:40.742Z,84.80
2017-10-10T14:27:09.451Z,84.80
2017-10-10T14:29:38.059Z,85.70
2017-10-10T14:32:06.697Z,85.70
2017-10-10T14:34:35.353Z,86.20
2017-10-10T14:37:04.071Z,86.50
2017-10-10T14:39:33.211Z,86.70
2017-10-10T14:42:01.945Z,87.30
2017-10-10T14:44:30.367Z,88.40
2017-10-10T14:46:58.901Z,89.00
2017-10-10T14:49:27.251Z,89.40
2017-10-10T14:51:55.559Z,89.30
2017-10-10T14:54:24.224Z,89.30
2017-10-10T14:56:52.509Z,89.30
2017-10-10T14:59:21.027Z,89.60
2017-10-10T15:01:49.735Z,89.80
2017-10-10T15:04:18.412Z,90.20
2017-10-10T15:06:46.999Z,90.50
2017-10-10T15:09:15.563Z,90.70
2017-10-10T15:11:43.976Z,90.80
2017-10-10T15:14:13.168Z,91.20
2017-10-10T15:16:43.055Z,91.30
2017-10-10T15:19:11.579Z,91.10
2017-10-10T15:21:40.370Z,91.30
2017-10-10T15:24:08.804Z,91.40
2017-10-10T15:26:37.183Z,91.30
2017-10-10T15:29:05.845Z,91.50
2017-10-10T15:31:34.154Z,91.60
2017-10-10T15:34:02.845Z,91.70
2017-10-10T15:36:31.443Z,92.10
2017-10-10T15:38:59.769Z,92.20
2017-10-10T15:41:28.705Z,92.20
2017-10-10T15:43:57.399Z,92.60
2017-10-10T15:46:25.707Z,92.40
2017-10-10T15:48:55.111Z,93.10
2017-10-10T15:51:23.698Z,93.00
2017-10-10T15:53:56.440Z,93.60
2017-10-10T15:56:25.381Z,93.60
2017-10-10T15:58:56.967Z,93.60
2017-10-10T16:01:25.621Z,93.70
2017-10-10T16:03:54.012Z,93.60
2017-10-10T16:06:22.377Z,93.90
2017-10-10T16:08:51.356Z,94.10
2017-10-10T16:11:19.852Z,94.50
2017-10-10T16:13:48.208Z,94.80
2017-10-10T16:16:17.011Z,95.20
2017-10-10T16:18:45.619Z,95.30
2017-10-10T16:21:13.990Z,95.40
2017-10-10T16:23:42.915Z,95.60
2017-10-10T16:26:11.846Z,95.90
2017-10-10T16:28:40.567Z,96.00
2017-10-10T16:31:09.483Z,96.80
2017-10-10T16:33:37.911Z,97.00
2017-10-10T16:36:06.669Z,96.40
2017-10-10T16:38:35.027Z,96.50
2017-10-10T16:41:03.631Z,96.70
2017-10-10T16:43:31.923Z,96.90
2017-10-10T16:46:00.259Z,97.00
2017-10-10T16:48:29.101Z,97.00
2017-10-10T16:50:57.879Z,96.80
2017-10-10T16:53:26.171Z,96.90
2017-10-10T16:55:55.466Z,97.00
2017-10-10T16:58:24.584Z,96.90
2017-10-10T17:00:53.891Z,97.00
2017-10-10T17:03:22.499Z,96.90
2017-10-10T17:05:51.355Z,96.80
2017-10-10T17:08:19.857Z,96.80
2017-10-10T17:10:49.089Z,96.70
2017-10-10T17:13:18.031Z,96.80
2017-10-10T17:15:47.256Z,96.70
2017-10-10T17:18:15.737Z,96.70
2017-10-10T17:20:44.326Z,96.70
2017-10-10T17:23:12.803Z,96.80
2017-10-10T17:25:41.131Z,96.90
2017-10-10T17:28:10.119Z,97.00
2017-10-10T17:30:38.856Z,97.00
2017-10-10T17:33:07.480Z,97.10
2017-10-10T17:35:35.819Z,97.10
2017-10-10T17:38:04.608Z,97.10
2017-10-10T17:40:33.139Z,97.00
2017-10-10T17:43:01.608Z,97.10
2017-10-10T17:45:29.915Z,97.00
2017-10-10T17:47:59.177Z,97.00
2017-10-10T17:50:28.055Z,96.90
2017-10-10T17:52:56.344Z,97.00
2017-10-10T17:55:25.271Z,97.00
2017-10-10T17:57:54.559Z,97.30
2017-10-10T18:00:22.932Z,97.30
2017-10-10T18:02:51.719Z,98.20
2017-10-10T18:05:20.185Z,97.30
2017-10-10T18:07:48.515Z,97.30
2017-10-10T18:10:17.675Z,97.70
2017-10-10T18:12:46.282Z,97.70
2017-10-10T18:15:15.913Z,97.70
2017-10-10T18:17:44.437Z,97.60
2017-10-10T18:20:13.122Z,97.50
2017-10-10T18:22:42.013Z,97.30
2017-10-10T18:25:10.679Z,97.40
2017-10-10T18:27:40.060Z,97.20
2017-10-10T18:30:08.952Z,97.10
2017-10-10T18:32:37.651Z,97.20
2017-10-10T18:35:06.440Z,97.20
2017-10-10T18:37:35.041Z,97.10
2017-10-10T18:40:03.940Z,97.10
2017-10-10T18:42:34.988Z,97.30
2017-10-10T18:45:03.381Z,97.30
2017-10-10T18:47:31.841Z,97.40
2017-10-10T18:50:00.351Z,97.40
2017-10-10T18:52:29.059Z,97.30
2017-10-10T18:54:57.567Z,97.20
2017-10-10T18:57:26.500Z,97.20
2017-10-10T18:59:55.296Z,97.50
2017-10-10T19:02:24.035Z,97.30
2017-10-10T19:04:52.447Z,97.20
2017-10-10T19:07:21.240Z,97.20
2017-10-10T19:09:50.211Z,97.10
2017-10-10T19:12:19.032Z,97.00
2017-10-10T19:14:47.355Z,97.00
2017-10-10T19:17:15.664Z,96.90
2017-10-10T19:19:44.836Z,97.00
2017-10-10T19:22:14.051Z,97.00
2017-10-10T19:24:42.655Z,97.10
2017-10-10T19:27:11.312Z,97.10
2017-10-10T19:29:39.882Z,96.80
2017-10-10T19:32:08.231Z,97.00
2017-10-10T19:34:37.095Z,96.80
2017-10-10T19:37:06.174Z,96.70
2017-10-10T19:39:35.147Z,96.70
2017-10-10T19:42:04.036Z,96.60
2017-10-10T19:44:32.398Z,96.50
2017-10-10T19:47:01.440Z,96.50
2017-10-10T19:49:30.552Z,96.50
2017-10-10T19:51:59.158Z,96.40
2017-10-10T19:54:28.318Z,96.40
2017-10-10T19:56:56.926Z,96.20
2017-10-10T19:59:25.840Z,96.30
2017-10-10T20:01:54.598Z,96.40
2017-10-10T20:04:23.199Z,96.40
2017-10-10T20:06:51.929Z,96.50
2017-10-10T20:09:20.927Z,96.60
2017-10-10T20:11:49.313Z,96.60
2017-10-10T20:14:18.028Z,96.70
2017-10-10T20:16:46.698Z,96.80
2017-10-10T20:19:16.127Z,96.80
2017-10-10T20:21:45.071Z,96.90
2017-10-10T20:24:13.799Z,97.00
2017-10-10T20:26:42.180Z,97.10
2017-10-10T20:29:10.746Z,97.20
2017-10-10T20:31:39.252Z,97.20
2017-10-10T20:34:07.611Z,97.10
2017-10-10T20:36:35.923Z,97.10
2017-10-10T20:39:04.899Z,96.80
2017-10-10T20:41:33.618Z,96.80
2017-10-10T20:44:01.943Z,96.70
2017-10-10T20:46:30.882Z,96.70
2017-10-10T20:49:00.087Z,96.60
2017-10-10T20:51:28.540Z,96.80
2017-10-10T20:53:56.857Z,96.70
2017-10-10T20:56:25.486Z,97.00
2017-10-10T20:58:53.968Z,96.70
2017-10-10T21:01:22.287Z,96.60
2017-10-10T21:03:50.647Z,96.50
2017-10-10T21:06:20.019Z,96.40
2017-10-10T21:08:48.334Z,96.30
2017-10-10T21:11:18.000Z,96.30
2017-10-10T21:13:46.865Z,96.30
2017-10-10T21:16:15.513Z,96.30
2017-10-10T21:18:43.836Z,96.50
2017-10-10T21:21:12.475Z,97.40
2017-10-10T21:23:42.321Z,96.70
2017-10-10T21:26:11.252Z,96.70
2017-10-10T21:28:40.179Z,97.00
2017-10-10T21:31:08.967Z,97.20
2017-10-10T21:33:38.413Z,97.40
2017-10-10T21:36:06.995Z,97.40
2017-10-10T21:38:35.887Z,98.40
2017-10-10T21:41:05.375Z,98.00
2017-10-10T21:43:33.911Z,97.90
2017-10-10T21:46:02.443Z,98.00
2017-10-10T21:48:31.570Z,98.10
2017-10-10T21:51:00.840Z,98.00
2017-10-10T21:53:29.665Z,98.20
2017-10-10T21:55:58.419Z,98.20
2017-10-10T21:58:27.226Z,98.20
2017-10-10T22:00:56.230Z,98.20
2017-10-10T22:03:24.813Z,98.20
2017-10-10T22:05:53.142Z,98.10
2017-10-10T22:08:22.182Z,98.10
2017-10-10T22:10:50.786Z,98.00
2017-10-10T22:13:19.647Z,97.90
2017-10-10T22:15:48.352Z,97.80
2017-10-10T22:18:17.400Z,97.70
2017-10-10T22:20:46.462Z,97.70
2017-10-10T22:23:15.995Z,97.60
2017-10-10T22:25:45.062Z,97.70
2017-10-10T22:28:13.727Z,97.60
2017-10-10T22:30:43.447Z,97.60
2017-10-10T22:33:11.939Z,97.60
2017-10-10T22:35:41.467Z,97.80
2017-10-10T22:38:10.930Z,97.90
2017-10-10T22:40:39.388Z,97.80
2017-10-10T22:43:07.995Z,97.90
2017-10-10T22:45:37.347Z,98.10
2017-10-10T22:48:06.110Z,98.10
2017-10-10T22:50:34.627Z,98.10
2017-10-10T22:53:03.223Z,98.60
2017-10-10T22:55:31.907Z,98.20
2017-10-10T22:58:00.233Z,98.10
2017-10-10T23:00:29.276Z,98.10
2017-10-10T23:02:57.820Z,98.10
2017-10-10T23:05:26.879Z,98.10
2017-10-10T23:07:55.491Z,98.10
2017-10-10T23:10:24.043Z,98.10
2017-10-10T23:12:52.471Z,98.20
2017-10-10T23:15:21.358Z,98.20
2017-10-10T23:17:50.314Z,98.00
2017-10-10T23:20:19.055Z,98.00
2017-10-10T23:22:48.035Z,98.10
2017-10-10T23:25:16.885Z,98.10
2017-10-10T23:27:45.590Z,97.80
2017-10-10T23:30:14.564Z,97.70
2017-10-10T23:32:43.557Z,97.50
2017-10-10T23:35:11.987Z,97.40
2017-10-10T23:37:41.167Z,97.40
2017-10-10T23:40:10.927Z,97.30
2017-10-10T23:42:39.886Z,97.20
2017-10-10T23:45:09.027Z,97.00
2017-10-10T23:47:37.733Z,97.00
2017-10-10T23:50:06.024Z,96.70
2017-10-10T23:52:34.411Z,96.70
2017-10-10T23:55:03.043Z,96.70
2017-10-10T23:57:32.307Z,96.60
